INFORMACIÓN METAR y TAF
METAR FOR LSZB
ADDS - METARS form results

(0659 UTC 15 April 2021)
Data provider http://aviationweather.gov/metar/data/
 
METAR text: LSZB 150650Z 00000KT CAVOK 01/M01 Q1023 NOSIG
Conditions at: LSZB (BERN/BELP , CH) observed 0650 UTC 15 April 2021
Temperature: 1.0°C (34°F)
Dewpoint: -1.0°C (30°F) [RH = 86%]
Pressure (altimeter): 30.21 inches Hg (1023.0 mb)
Winds: calm
Visibility: 6 or more miles (10+ km)
Ceiling: ceiling and visibility are OK
Clouds: unknown
Weather: no significant weather observed at this time

METAR text: LSZB 150620Z 00000KT CAVOK M01/M02 Q1023 NOSIG
Conditions at: LSZB (BERN/BELP , CH) observed 0620 UTC 15 April 2021
Temperature: -1.0°C (30°F)
Dewpoint: -2.0°C (28°F) [RH = 93%]
Pressure (altimeter): 30.21 inches Hg (1023.0 mb)
Winds: calm
Visibility: 6 or more miles (10+ km)
Ceiling: ceiling and visibility are OK
Clouds: unknown
Weather: no significant weather observed at this time

Forecast for: LSZB (BERN/BELP , CH)
Text: TAF LSZB 150525Z 1506/1515 VRB01KT CAVOK
Forecast period: 0600 to 0800 UTC 15 April 2021
Forecast type: FROM: standard forecast or significant change
Winds: variable direction winds at 1 MPH (1 knots; 0.5 m/s)
Visibility: 6 or more miles (10+ km)
Ceiling: unknown
Clouds: missing
Weather: NSW  (no significant weather)
Text: BECMG 1508/1511 05010KT 9999 SCT060
Forecast period: 0800 to 1500 UTC 15 April 2021
Forecast type: BECOMING: Conditions expected to become as follows by 1100 UTC 15 April 2021
Winds: from the NE (50 degrees) at 12 MPH (10 knots; 5.1 m/s)
Visibility: 6 or more miles (10+ km)
Ceiling: at least 12,000 feet AGL
Clouds: scattered clouds at 6000 feet AGL
Weather: NSW  (no significant weather)

 MAPA DE AEROPUERTO

 INFORMACIÓN DE PISTA
Pista 14 Longitud 4954 ft Ancho 98 ft
Elevación 1668 ft Umbral desplazado 656 ft Rumbo de pista 140
Pista 32 Longitud 4954 ft Ancho 98 ft
Elevación 1674 ft Umbral desplazado 360 ft Rumbo de pista 320
Pista 14L Longitud 2133 ft Ancho 98 ft
Elevación 0 ft Umbral desplazado 0 ft Rumbo de pista 140
Pista 32R Longitud 2133 ft Ancho 98 ft
Elevación 0 ft Umbral desplazado 0 ft Rumbo de pista 320
Pista 14R Longitud 2125 ft Ancho 98 ft
Elevación 0 ft Umbral desplazado 0 ft Rumbo de pista 140
Pista 32L Longitud 2125 ft Ancho 98 ft
Elevación 0 ft Umbral desplazado 0 ft Rumbo de pista 320

 FRECUANCIAS DEL AEROPUERTO
Tipo A/D Nombre APP/DEP Frecuencia 127.325 MHZ
Tipo ATIS Nombre ATIS Frecuencia 125.125 MHZ
Tipo MISC Nombre GLIDER Frecuencia 123.4 MHZ
Tipo OPS Nombre ALPAR Frecuencia 135.75 MHZ
Tipo TWR Nombre TWR Frecuencia 121.025 MHZ

 RADIO AYUDAS DEL AEROPUERTO
Tipo NDB Nombre Bern Frecuencia 335 KHZ
Tipo NDB Nombre Muri Frecuencia 312 KHZ
Tipo NDB Nombre Schupberg Frecuencia 357 KHZ



Powered by Virtual Airlines Manager [v2.6.2]